Time;durP1;ratioP1;P1;durP2;ratioP2;P2;SDS_P1;SDS_P2;PMS_P1;PMS_P2;Temp;Humidity;BMP_temperature;BMP_pressure;BME280_temperature;BME280_humidity;BME280_pressure;Samples;Min_cycle;Max_cycle;Signal;HPM_P1;HPM_P2
2023/09/02 00:01:07;;;;;;;4.60;4.20;;;11.40;99.90;;;;;;5031204;28;20451;-52
2023/09/02 00:03:35;;;;;;;6.37;4.10;;;11.40;99.90;;;;;;5030608;28;20564;-52
2023/09/02 00:06:01;;;;;;;4.73;4.33;;;11.40;99.90;;;;;;5019988;28;20498;-51
2023/09/02 00:08:28;;;;;;;5.47;4.80;;;11.40;99.90;;;;;;5017703;28;20468;-51
2023/09/02 00:10:56;;;;;;;4.97;4.47;;;11.40;99.90;;;;;;5040402;28;20458;-52
2023/09/02 00:13:22;;;;;;;5.20;4.37;;;11.30;99.90;;;;;;5031802;28;20458;-52
2023/09/02 00:15:49;;;;;;;4.63;4.03;;;11.20;99.90;;;;;;5032284;28;20509;-50
2023/09/02 00:18:15;;;;;;;5.17;4.67;;;11.20;99.90;;;;;;5040890;28;20939;-52
2023/09/02 00:20:42;;;;;;;7.10;4.60;;;11.10;99.90;;;;;;5033708;28;20454;-51
2023/09/02 00:23:08;;;;;;;5.90;4.40;;;11.10;99.90;;;;;;5031079;28;20568;-51
2023/09/02 00:25:35;;;;;;;6.73;4.20;;;11.10;99.90;;;;;;5014895;28;20494;-51
2023/09/02 00:28:04;;;;;;;7.50;4.20;;;11.10;99.90;;;;;;5032781;28;20493;-51
2023/09/02 00:30:30;;;;;;;4.70;3.93;;;11.10;99.90;;;;;;5035140;28;20521;-51
2023/09/02 00:32:57;;;;;;;8.00;4.03;;;11.10;99.90;;;;;;5031090;28;20451;-52
2023/09/02 00:35:24;;;;;;;8.47;3.90;;;11.10;99.90;;;;;;5031625;28;20856;-52
2023/09/02 00:37:50;;;;;;;4.97;4.47;;;11.00;99.90;;;;;;5026187;28;20997;-51
2023/09/02 00:40:20;;;;;;;5.70;4.07;;;11.00;99.90;;;;;;5026241;28;20443;-52
2023/09/02 00:42:48;;;;;;;5.63;3.83;;;11.00;99.90;;;;;;5032511;28;20479;-51
2023/09/02 00:45:21;;;;;;;4.20;3.90;;;11.00;99.90;;;;;;5031859;28;20447;-51
2023/09/02 00:47:49;;;;;;;6.73;4.40;;;11.00;99.90;;;;;;5040122;28;20469;-52
2023/09/02 00:50:15;;;;;;;5.10;4.53;;;11.00;99.90;;;;;;5032089;28;20470;-51
2023/09/02 00:52:42;;;;;;;5.67;4.00;;;11.00;99.90;;;;;;5031139;28;20463;-51
2023/09/02 00:55:09;;;;;;;5.20;4.70;;;10.90;99.90;;;;;;5024704;28;20514;-51
2023/09/02 00:57:36;;;;;;;7.90;3.90;;;10.90;99.90;;;;;;5026151;28;20536;-52
2023/09/02 01:00:04;;;;;;;3.73;3.47;;;10.80;99.90;;;;;;5039057;28;20438;-51
2023/09/02 01:02:33;;;;;;;4.30;3.90;;;10.80;99.90;;;;;;5029424;28;20517;-51
2023/09/02 01:05:00;;;;;;;5.97;4.50;;;10.80;99.90;;;;;;5029833;28;20812;-52
2023/09/02 01:07:27;;;;;;;7.50;4.53;;;10.80;99.90;;;;;;5030571;28;20463;-52
2023/09/02 01:09:53;;;;;;;5.63;4.00;;;10.80;99.90;;;;;;5031679;28;20443;-52
2023/09/02 01:12:20;;;;;;;4.70;3.73;;;10.70;99.90;;;;;;5030804;28;20541;-52
2023/09/02 01:14:47;;;;;;;7.27;4.80;;;10.70;99.90;;;;;;5030443;28;20443;-52
2023/09/02 01:17:13;;;;;;;7.27;5.37;;;10.70;99.90;;;;;;5040121;28;20974;-52
2023/09/02 01:19:43;;;;;;;12.57;4.70;;;10.70;99.90;;;;;;5049717;28;20841;-52
2023/09/02 01:22:30;;;;;;;5.03;4.70;;;10.70;99.90;;;;;;5032475;28;20470;-52
2023/09/02 01:25:15;;;;;;;5.77;4.80;;;10.80;99.90;;;;;;5021830;28;20973;-51
2023/09/02 01:27:47;;;;;;;8.03;5.60;;;10.70;99.90;;;;;;5038260;28;20467;-51
2023/09/02 01:30:16;;;;;;;9.30;5.50;;;10.60;99.90;;;;;;5023807;28;20493;-52
2023/09/02 01:32:45;;;;;;;5.73;5.20;;;10.60;99.90;;;;;;5031124;28;20475;-52
2023/09/02 01:35:17;;;;;;;8.80;5.13;;;10.50;99.90;;;;;;5030456;28;20470;-51
2023/09/02 01:37:45;;;;;;;6.07;5.00;;;10.50;99.90;;;;;;5026297;28;20873;-52
2023/09/02 01:40:21;;;;;;;5.97;5.40;;;10.50;99.90;;;;;;5028522;28;20545;-51
2023/09/02 01:42:50;;;;;;;9.40;5.03;;;10.50;99.90;;;;;;5031424;28;21066;-52
2023/09/02 01:45:17;;;;;;;4.50;4.20;;;10.50;99.90;;;;;;5031336;28;20447;-53
2023/09/02 01:47:44;;;;;;;4.90;4.40;;;10.50;99.90;;;;;;5039483;28;20543;-51
2023/09/02 01:50:13;;;;;;;5.33;4.50;;;10.60;99.90;;;;;;5034949;28;21001;-52
2023/09/02 01:52:40;;;;;;;7.40;5.67;;;10.50;99.90;;;;;;5028995;28;20486;-51
2023/09/02 01:55:08;;;;;;;7.93;5.40;;;10.50;99.90;;;;;;5030936;28;20478;-51
2023/09/02 01:57:35;;;;;;;13.23;5.60;;;10.50;99.90;;;;;;5026679;28;20494;-51
2023/09/02 02:00:04;;;;;;;5.50;5.00;;;10.60;99.90;;;;;;5019836;28;20939;-53
2023/09/02 02:02:31;;;;;;;6.87;5.30;;;10.60;99.90;;;;;;5029236;28;20560;-52
2023/09/02 02:05:02;;;;;;;6.10;4.57;;;10.60;99.90;;;;;;5022916;28;20996;-51
2023/09/02 02:07:37;;;;;;;5.07;4.67;;;10.60;99.90;;;;;;5029515;28;20468;-52
2023/09/02 02:10:07;;;;;;;5.77;4.50;;;10.60;99.90;;;;;;5032262;28;20447;-51
2023/09/02 02:12:34;;;;;;;5.67;5.23;;;10.60;99.90;;;;;;5031265;28;20467;-51
2023/09/02 02:15:00;;;;;;;4.67;4.27;;;10.60;99.90;;;;;;5030519;28;20454;-51
2023/09/02 02:17:29;;;;;;;6.20;4.30;;;10.60;99.90;;;;;;5028887;28;20521;-52
2023/09/02 02:19:55;;;;;;;5.57;5.07;;;10.60;99.90;;;;;;5029850;28;20466;-52
2023/09/02 02:22:22;;;;;;;5.10;4.53;;;10.50;99.90;;;;;;5018291;28;20582;-52
2023/09/02 02:24:49;;;;;;;8.70;6.57;;;10.50;99.90;;;;;;5029366;28;20516;-52
2023/09/02 02:27:15;;;;;;;6.37;5.77;;;10.40;99.90;;;;;;5031574;28;20501;-51
2023/09/02 02:29:42;;;;;;;6.20;5.70;;;10.40;99.90;;;;;;5028357;28;20494;-52
2023/09/02 02:32:08;;;;;;;9.50;5.90;;;10.50;99.90;;;;;;5029766;28;20492;-52
2023/09/02 02:34:36;;;;;;;17.13;5.93;;;10.40;99.90;;;;;;5030699;28;20450;-52
2023/09/02 02:37:03;;;;;;;4.80;4.37;;;10.40;99.90;;;;;;5028807;28;20462;-52
2023/09/02 02:39:30;;;;;;;4.43;4.03;;;10.40;99.90;;;;;;5034550;28;20576;-51
2023/09/02 02:41:56;;;;;;;5.33;4.57;;;10.30;99.90;;;;;;5034358;28;20446;-52
2023/09/02 02:44:23;;;;;;;4.93;4.47;;;10.20;99.90;;;;;;5034307;28;20501;-52
2023/09/02 02:46:49;;;;;;;4.90;4.50;;;10.30;99.90;;;;;;5034257;28;20465;-52
2023/09/02 02:49:16;;;;;;;7.40;4.97;;;10.30;99.90;;;;;;5033404;28;20469;-52
2023/09/02 02:51:44;;;;;;;7.77;4.60;;;10.20;99.90;;;;;;5034420;28;20994;-52
2023/09/02 02:54:10;;;;;;;5.70;4.40;;;10.20;99.90;;;;;;5027901;28;21011;-52
2023/09/02 02:56:37;;;;;;;5.83;4.80;;;10.20;99.90;;;;;;5028035;28;21007;-52
2023/09/02 02:59:03;;;;;;;6.60;4.90;;;10.10;99.90;;;;;;5041266;28;20459;-52
2023/09/02 03:01:31;;;;;;;6.30;5.10;;;10.10;99.90;;;;;;5032177;28;20509;-52
2023/09/02 03:03:57;;;;;;;6.27;4.73;;;10.10;99.90;;;;;;5033461;28;20565;-52
2023/09/02 03:06:24;;;;;;;6.33;5.70;;;10.00;99.90;;;;;;5032947;28;20462;-51
2023/09/02 03:08:52;;;;;;;7.63;5.60;;;10.00;99.90;;;;;;5031981;28;20956;-52
2023/09/02 03:11:18;;;;;;;8.40;5.00;;;10.00;99.90;;;;;;5031006;28;20487;-51
2023/09/02 03:13:45;;;;;;;5.50;5.03;;;10.00;99.90;;;;;;5040495;28;20531;-51
2023/09/02 03:16:11;;;;;;;7.20;5.20;;;9.90;99.90;;;;;;5033863;28;20439;-51
2023/09/02 03:18:38;;;;;;;17.93;5.10;;;9.90;99.90;;;;;;5032306;28;20883;-51
2023/09/02 03:21:06;;;;;;;6.70;5.40;;;9.90;99.90;;;;;;5033861;28;20992;-52
2023/09/02 03:23:34;;;;;;;7.30;5.30;;;9.90;99.90;;;;;;5029769;28;20494;-51
2023/09/02 03:26:09;;;;;;;5.67;5.13;;;9.90;99.90;;;;;;5031940;28;20938;-52
2023/09/02 03:28:35;;;;;;;6.00;5.40;;;9.90;99.90;;;;;;5033025;28;20454;-51
2023/09/02 03:31:07;;;;;;;5.40;4.63;;;9.80;99.90;;;;;;5033475;28;20492;-51
2023/09/02 03:33:33;;;;;;;5.07;4.53;;;9.80;99.90;;;;;;5032687;28;20487;-52
2023/09/02 03:36:00;;;;;;;6.63;5.40;;;9.80;99.90;;;;;;5033530;28;20435;-52
2023/09/02 03:38:27;;;;;;;6.90;5.00;;;9.80;99.90;;;;;;5030266;28;20807;-51
2023/09/02 03:40:54;;;;;;;6.77;5.10;;;9.70;99.90;;;;;;5033401;28;20435;-52
2023/09/02 03:43:22;;;;;;;5.20;4.70;;;9.70;99.90;;;;;;5035963;28;20995;-52
2023/09/02 03:45:49;;;;;;;6.27;5.03;;;9.70;99.90;;;;;;5021657;28;20527;-52
2023/09/02 03:48:17;;;;;;;7.10;4.93;;;9.70;99.90;;;;;;5027997;28;20439;-54
2023/09/02 03:51:00;;;;;;;5.40;4.53;;;9.60;99.90;;;;;;5032417;28;20469;-57
2023/09/02 03:53:26;;;;;;;5.77;5.00;;;9.60;99.90;;;;;;5036585;22;20499;-53
2023/09/02 03:55:54;;;;;;;6.90;5.00;;;9.60;99.90;;;;;;5006639;28;20463;-53
2023/09/02 03:58:22;;;;;;;6.20;5.60;;;9.60;99.90;;;;;;5000699;28;20483;-52
2023/09/02 04:00:48;;;;;;;8.03;5.70;;;9.60;99.90;;;;;;5018285;28;21047;-53
2023/09/02 04:03:19;;;;;;;5.17;4.77;;;9.60;99.90;;;;;;5013041;28;20484;-53
2023/09/02 04:05:46;;;;;;;10.00;4.80;;;9.50;99.90;;;;;;5012688;28;20894;-53
2023/09/02 04:08:12;;;;;;;4.83;4.43;;;9.50;99.90;;;;;;5013744;28;20467;-53
2023/09/02 04:10:39;;;;;;;4.33;4.03;;;9.50;99.90;;;;;;5014050;28;20464;-53
2023/09/02 04:13:05;;;;;;;4.90;4.40;;;9.50;99.90;;;;;;5013145;28;20455;-53
2023/09/02 04:15:33;;;;;;;7.50;5.47;;;9.40;99.90;;;;;;5012639;28;20439;-53
2023/09/02 04:18:00;;;;;;;4.40;4.00;;;9.40;99.90;;;;;;5011107;28;20521;-52
2023/09/02 04:20:27;;;;;;;7.30;5.03;;;9.40;99.90;;;;;;5012820;28;20526;-53
2023/09/02 04:22:54;;;;;;;7.00;4.93;;;9.40;99.90;;;;;;5018216;28;20514;-53
2023/09/02 04:25:20;;;;;;;5.10;4.60;;;9.30;99.90;;;;;;5012300;28;20472;-53
2023/09/02 04:27:47;;;;;;;6.03;5.27;;;9.30;99.90;;;;;;5010770;28;20521;-53
2023/09/02 04:30:16;;;;;;;7.40;4.97;;;9.30;99.90;;;;;;5012748;28;20443;-52
2023/09/02 04:32:47;;;;;;;4.83;4.33;;;9.30;99.90;;;;;;5010924;28;21008;-52
2023/09/02 04:35:13;;;;;;;5.50;5.00;;;9.30;99.90;;;;;;5011930;28;20448;-52
2023/09/02 04:37:40;;;;;;;6.23;5.33;;;9.30;99.90;;;;;;5000678;28;20464;-52
2023/09/02 04:40:09;;;;;;;5.80;4.83;;;9.30;99.90;;;;;;5004729;28;20444;-52
2023/09/02 04:42:36;;;;;;;6.37;5.50;;;9.30;99.90;;;;;;5011401;28;20490;-52
2023/09/02 04:45:02;;;;;;;8.17;5.70;;;9.30;99.90;;;;;;5011841;28;20474;-52
2023/09/02 04:47:29;;;;;;;6.53;4.60;;;9.30;99.90;;;;;;5012734;28;20525;-52
2023/09/02 04:49:57;;;;;;;6.23;4.43;;;9.40;99.90;;;;;;5011041;28;20487;-51
2023/09/02 04:52:23;;;;;;;13.73;5.00;;;9.30;99.90;;;;;;5009832;28;20524;-52
2023/09/02 04:54:50;;;;;;;7.33;4.40;;;9.30;99.90;;;;;;5003795;28;20949;-52
2023/09/02 04:57:16;;;;;;;5.30;4.77;;;9.30;99.90;;;;;;5006576;28;20468;-52
2023/09/02 04:59:43;;;;;;;5.00;4.50;;;9.40;99.90;;;;;;5002236;28;20495;-52
2023/09/02 05:02:10;;;;;;;6.10;4.40;;;9.40;99.90;;;;;;5012588;28;20490;-52
2023/09/02 05:04:36;;;;;;;7.93;5.27;;;9.40;99.90;;;;;;5011781;28;20483;-52
2023/09/02 05:07:04;;;;;;;4.93;4.53;;;9.40;99.90;;;;;;5012264;28;20503;-52
2023/09/02 05:09:31;;;;;;;7.40;5.77;;;9.50;99.90;;;;;;5010215;28;20459;-52
2023/09/02 05:11:58;;;;;;;5.87;5.10;;;9.50;99.90;;;;;;4992789;28;20441;-51
2023/09/02 05:14:24;;;;;;;6.47;5.77;;;9.50;99.90;;;;;;5003570;28;20511;-52
2023/09/02 05:16:51;;;;;;;5.30;4.87;;;9.50;99.90;;;;;;5012152;28;20435;-52
2023/09/02 05:19:18;;;;;;;6.50;4.63;;;9.60;99.90;;;;;;5012157;28;20863;-51
2023/09/02 05:21:46;;;;;;;6.23;5.07;;;9.60;99.90;;;;;;5009454;28;20455;-51
2023/09/02 05:24:14;;;;;;;7.73;4.70;;;9.70;99.90;;;;;;5008237;28;20489;-51
2023/09/02 05:26:40;;;;;;;5.90;5.40;;;9.80;99.90;;;;;;5003847;28;20471;-52
2023/09/02 05:29:07;;;;;;;5.80;5.30;;;9.80;99.90;;;;;;5012283;28;20444;-52
2023/09/02 05:31:34;;;;;;;7.63;4.90;;;9.80;99.90;;;;;;5011055;28;20468;-51
2023/09/02 05:34:00;;;;;;;6.03;5.50;;;9.90;99.90;;;;;;5011165;28;21043;-52
2023/09/02 05:36:27;;;;;;;5.60;5.10;;;9.90;99.90;;;;;;5011817;28;20467;-51
2023/09/02 05:38:53;;;;;;;6.67;5.80;;;10.00;99.90;;;;;;4996338;28;20499;-52
2023/09/02 05:41:24;;;;;;;6.67;5.77;;;10.00;99.90;;;;;;5012137;28;20535;-53
2023/09/02 05:43:50;;;;;;;7.13;6.27;;;10.10;99.90;;;;;;4991929;28;20864;-51
2023/09/02 05:46:17;;;;;;;6.53;5.97;;;10.20;99.90;;;;;;4993427;28;21236;-51
2023/09/02 05:48:44;;;;;;;6.97;6.37;;;10.30;99.90;;;;;;5011979;28;20444;-52
2023/09/02 05:51:10;;;;;;;8.73;6.70;;;10.40;99.90;;;;;;5002829;28;20486;-51
2023/09/02 05:53:37;;;;;;;7.63;5.50;;;10.50;99.90;;;;;;5008345;28;20571;-52
2023/09/02 05:56:04;;;;;;;10.73;6.20;;;10.60;99.90;;;;;;5009051;28;20495;-51
2023/09/02 05:58:31;;;;;;;7.33;5.13;;;10.70;99.90;;;;;;5010769;28;21077;-52
2023/09/02 06:01:03;;;;;;;7.27;6.57;;;10.70;99.90;;;;;;5011916;28;20863;-51
2023/09/02 06:03:30;;;;;;;7.80;6.97;;;10.90;99.90;;;;;;5014048;28;20514;-51
2023/09/02 06:05:57;;;;;;;8.00;7.20;;;11.00;99.90;;;;;;5008011;28;20444;-51
2023/09/02 06:08:23;;;;;;;9.13;7.57;;;11.10;99.90;;;;;;4997647;28;20461;-51
2023/09/02 06:10:57;;;;;;;10.03;8.43;;;11.30;99.90;;;;;;5011326;28;20447;-51
2023/09/02 06:13:23;;;;;;;8.97;8.10;;;11.40;99.90;;;;;;5013482;28;20847;-52
2023/09/02 06:15:51;;;;;;;12.03;9.00;;;11.50;99.90;;;;;;5003871;28;20479;-51
2023/09/02 06:18:18;;;;;;;12.17;8.60;;;11.70;99.90;;;;;;5001234;28;20479;-52
2023/09/02 06:20:44;;;;;;;9.00;7.70;;;11.80;99.90;;;;;;5014036;28;20495;-51
2023/09/02 06:23:11;;;;;;;11.87;8.70;;;11.90;99.90;;;;;;5008729;28;20545;-51
2023/09/02 06:25:37;;;;;;;13.13;8.10;;;12.00;99.90;;;;;;5005354;28;20568;-51
2023/09/02 06:28:04;;;;;;;9.80;8.43;;;12.10;99.90;;;;;;4998223;28;20491;-51
2023/09/02 06:30:31;;;;;;;12.77;8.20;;;12.20;99.90;;;;;;5014796;28;20513;-51
2023/09/02 06:32:59;;;;;;;10.67;9.00;;;12.30;99.90;;;;;;5009102;28;20832;-51
2023/09/02 06:35:25;;;;;;;9.80;8.53;;;12.40;99.90;;;;;;5000395;28;20895;-51
2023/09/02 06:37:52;;;;;;;10.53;8.27;;;12.50;99.90;;;;;;5013209;28;20459;-51
2023/09/02 06:40:19;;;;;;;13.00;8.50;;;12.60;99.90;;;;;;5019144;28;20458;-50
2023/09/02 06:42:45;;;;;;;10.20;8.50;;;12.70;99.90;;;;;;5013983;28;20459;-51
2023/09/02 06:45:12;;;;;;;11.23;8.00;;;12.80;99.90;;;;;;5006933;28;20487;-51
2023/09/02 06:47:38;;;;;;;12.87;9.43;;;12.90;99.90;;;;;;5015085;28;20498;-51
2023/09/02 06:50:07;;;;;;;12.83;9.13;;;12.90;99.90;;;;;;5023217;28;20466;-52
2023/09/02 06:52:34;;;;;;;10.43;9.37;;;13.00;99.90;;;;;;5010423;28;20518;-51
2023/09/02 06:55:00;;;;;;;11.50;9.47;;;13.10;99.90;;;;;;5006690;28;20805;-51
2023/09/02 06:57:27;;;;;;;10.93;9.17;;;13.30;99.90;;;;;;5008401;28;20440;-51
2023/09/02 06:59:53;;;;;;;12.30;8.53;;;13.40;99.90;;;;;;5013073;28;20490;-52
2023/09/02 07:02:20;;;;;;;12.60;8.60;;;13.40;99.90;;;;;;5008548;28;20537;-51
2023/09/02 07:04:49;;;;;;;10.83;8.20;;;13.60;99.90;;;;;;5006325;28;20508;-51
2023/09/02 07:07:17;;;;;;;13.40;7.53;;;13.60;99.90;;;;;;5013441;28;20470;-51
2023/09/02 07:09:44;;;;;;;8.53;7.73;;;13.80;99.90;;;;;;5006683;28;20981;-52
2023/09/02 07:12:10;;;;;;;13.83;7.80;;;13.90;99.90;;;;;;5014039;28;20984;-53
2023/09/02 07:14:37;;;;;;;9.47;7.37;;;14.00;99.90;;;;;;5010612;28;20978;-53
2023/09/02 07:17:04;;;;;;;10.77;7.37;;;14.10;99.90;;;;;;5012605;28;20885;-52
2023/09/02 07:19:30;;;;;;;12.83;7.00;;;14.30;99.90;;;;;;5006109;28;20490;-51
2023/09/02 07:21:57;;;;;;;7.40;6.70;;;14.40;99.90;;;;;;5008924;28;20493;-52
2023/09/02 07:24:25;;;;;;;7.00;6.30;;;14.50;99.90;;;;;;5008511;28;20496;-52
2023/09/02 07:26:52;;;;;;;10.67;6.20;;;14.60;99.90;;;;;;5012663;28;20955;-52
2023/09/02 07:29:19;;;;;;;10.00;6.67;;;14.60;99.90;;;;;;5014087;28;20502;-51
2023/09/02 07:31:45;;;;;;;6.80;6.03;;;14.80;99.90;;;;;;5012266;28;20972;-52
2023/09/02 07:34:12;;;;;;;7.97;7.20;;;14.90;99.90;;;;;;5011806;28;20499;-52
2023/09/02 07:36:38;;;;;;;17.73;7.43;;;15.00;99.90;;;;;;4998642;28;20499;-52
2023/09/02 07:39:05;;;;;;;8.80;6.37;;;15.10;99.90;;;;;;5013869;28;20471;-51
2023/09/02 07:41:33;;;;;;;7.97;6.00;;;15.20;99.90;;;;;;5013882;28;20467;-52
2023/09/02 07:43:59;;;;;;;11.40;6.43;;;15.30;99.90;;;;;;5011786;28;20523;-53
2023/09/02 07:46:26;;;;;;;8.57;5.23;;;15.50;99.90;;;;;;5016349;28;20525;-52
2023/09/02 07:48:53;;;;;;;9.27;5.73;;;15.70;99.90;;;;;;5009399;28;20492;-53
2023/09/02 07:51:19;;;;;;;13.80;4.80;;;15.80;99.90;;;;;;5011286;28;20495;-52
2023/09/02 07:53:46;;;;;;;4.70;3.97;;;15.90;75.80;;;;;;5004417;28;20497;-53
2023/09/02 07:56:13;;;;;;;5.57;5.00;;;15.90;23.60;;;;;;5010255;28;20472;-53
2023/09/02 07:58:42;;;;;;;6.13;4.33;;;16.00;28.60;;;;;;5005757;28;20880;-52
2023/09/02 08:01:09;;;;;;;5.50;4.10;;;16.00;31.90;;;;;;5005695;28;20543;-52
2023/09/02 08:03:35;;;;;;;5.33;4.50;;;16.20;34.80;;;;;;5012457;28;20484;-53
2023/09/02 08:06:05;;;;;;;5.30;4.00;;;16.30;37.70;;;;;;5012048;28;20448;-52
2023/09/02 08:08:32;;;;;;;10.70;4.67;;;16.40;40.20;;;;;;5012365;28;20436;-53
2023/09/02 08:11:02;;;;;;;9.73;4.70;;;16.50;58.70;;;;;;4993882;28;20495;-52
2023/09/02 08:13:29;;;;;;;10.37;4.30;;;16.80;60.80;;;;;;4993800;28;20484;-52
2023/09/02 08:15:57;;;;;;;6.07;3.73;;;17.00;53.70;;;;;;5006408;28;20460;-51
2023/09/02 08:18:24;;;;;;;4.50;3.43;;;17.10;71.20;;;;;;5009793;28;20513;-52
2023/09/02 08:20:50;;;;;;;5.93;3.97;;;17.20;81.40;;;;;;5004908;28;20514;-51
2023/09/02 08:23:17;;;;;;;4.63;4.10;;;17.30;88.00;;;;;;5010449;28;20534;-53
2023/09/02 08:25:43;;;;;;;4.10;3.67;;;17.40;93.80;;;;;;5011270;28;21025;-53
2023/09/02 08:28:10;;;;;;;5.50;3.87;;;17.50;98.10;;;;;;5007651;28;20493;-52
2023/09/02 08:30:40;;;;;;;5.97;4.10;;;17.50;99.90;;;;;;5016201;28;20466;-52
2023/09/02 08:33:08;;;;;;;4.50;3.57;;;17.60;98.60;;;;;;5004442;28;20969;-53
2023/09/02 08:35:35;;;;;;;6.60;3.70;;;17.70;98.40;;;;;;5008180;28;20460;-52
2023/09/02 08:38:02;;;;;;;8.63;3.70;;;17.80;94.40;;;;;;5010662;28;20466;-52
2023/09/02 08:40:29;;;;;;;4.20;3.53;;;17.80;95.40;;;;;;5004593;28;20966;-53
2023/09/02 08:42:55;;;;;;;7.30;4.30;;;18.00;94.50;;;;;;4992763;28;20825;-52
2023/09/02 08:45:25;;;;;;;10.63;4.20;;;18.10;99.90;;;;;;5010691;28;20517;-51
2023/09/02 08:48:00;;;;;;;6.27;3.60;;;18.20;99.90;;;;;;5013185;28;20463;-53
2023/09/02 08:50:29;;;;;;;6.60;3.10;;;18.20;99.90;;;;;;5012679;28;20490;-53
2023/09/02 08:52:56;;;;;;;5.83;3.20;;;18.40;99.90;;;;;;5007231;28;20498;-52
2023/09/02 08:55:23;;;;;;;6.37;2.97;;;18.60;99.90;;;;;;5011775;28;20482;-53
2023/09/02 08:57:50;;;;;;;5.90;3.47;;;18.80;99.90;;;;;;5006365;28;20482;-52
2023/09/02 09:00:16;;;;;;;4.40;2.57;;;19.00;99.90;;;;;;5007263;28;20468;-53
2023/09/02 09:02:44;;;;;;;10.10;3.30;;;19.10;99.90;;;;;;5011427;28;20868;-53
2023/09/02 09:05:12;;;;;;;5.03;3.23;;;19.30;99.90;;;;;;5011782;28;20511;-53
2023/09/02 09:07:41;;;;;;;4.37;2.67;;;19.30;99.90;;;;;;5002617;28;20840;-52
2023/09/02 09:10:10;;;;;;;4.30;2.53;;;19.50;99.90;;;;;;5006886;28;20467;-53
2023/09/02 09:12:37;;;;;;;9.77;3.47;;;19.60;99.90;;;;;;5013107;28;20463;-54
2023/09/02 09:15:04;;;;;;;10.43;3.03;;;19.80;99.90;;;;;;5011502;28;20463;-54
2023/09/02 09:17:31;;;;;;;7.57;3.03;;;19.90;99.90;;;;;;5012362;28;20436;-53
2023/09/02 09:19:59;;;;;;;15.20;3.07;;;19.80;99.90;;;;;;5012121;28;20439;-52
2023/09/02 09:22:26;;;;;;;4.60;2.90;;;19.80;46.00;;;;;;5010545;28;20455;-51
2023/09/02 09:24:54;;;;;;;4.10;2.27;;;19.90;56.80;;;;;;5011106;28;20480;-53
2023/09/02 09:27:21;;;;;;;4.43;3.10;;;19.90;52.80;;;;;;5010977;28;20464;-52
2023/09/02 09:29:47;;;;;;;5.20;3.03;;;19.80;67.30;;;;;;5010845;28;20494;-51
2023/09/02 09:32:15;;;;;;;6.83;3.13;;;19.80;70.40;;;;;;5010082;28;20456;-53
2023/09/02 09:34:44;;;;;;;3.80;3.00;;;19.90;54.40;;;;;;5010422;28;20479;-52
2023/09/02 09:37:12;;;;;;;3.70;2.90;;;20.00;77.50;;;;;;5010792;28;20459;-52
2023/09/02 09:39:43;;;;;;;4.57;3.30;;;20.20;74.40;;;;;;5017518;28;20992;-52
2023/09/02 09:42:12;;;;;;;4.50;2.80;;;20.30;78.30;;;;;;4998700;28;20479;-53
2023/09/02 09:44:53;;;;;;;4.87;3.17;;;20.50;80.50;;;;;;4991618;28;20484;-53
2023/09/02 09:47:19;;;;;;;6.13;3.10;;;20.40;92.50;;;;;;5011580;28;20466;-52
2023/09/02 09:49:49;;;;;;;3.90;3.47;;;20.70;99.90;;;;;;5013307;28;20463;-53
2023/09/02 09:52:17;;;;;;;7.00;3.30;;;21.10;99.90;;;;;;5014055;28;20557;-51
2023/09/02 09:54:47;;;;;;;8.53;3.17;;;21.30;99.90;;;;;;5043453;22;20552;-58
2023/09/02 09:57:17;;;;;;;4.70;3.30;;;21.30;99.90;;;;;;5030050;28;20436;-59
2023/09/02 09:59:51;;;;;;;6.80;3.00;;;21.30;99.90;;;;;;5015446;28;20443;-58
2023/09/02 10:02:19;;;;;;;6.67;2.83;;;21.50;99.90;;;;;;5026696;28;20458;-58
2023/09/02 10:04:52;;;;;;;4.83;3.40;;;21.50;99.90;;;;;;5027813;28;20587;-58
2023/09/02 10:07:23;;;;;;;4.00;2.80;;;21.60;99.90;;;;;;5020900;28;20458;-51
2023/09/02 10:09:50;;;;;;;7.70;3.47;;;22.20;99.90;;;;;;5034920;28;20435;-51
2023/09/02 10:12:18;;;;;;;3.00;2.43;;;22.00;99.90;;;;;;5035895;28;20443;-53
2023/09/02 10:14:47;;;;;;;4.97;3.00;;;21.60;99.90;;;;;;5035582;28;20481;-53
2023/09/02 10:17:14;;;;;;;7.40;2.87;;;22.60;99.90;;;;;;5033170;28;20971;-53
2023/09/02 10:19:41;;;;;;;3.57;2.80;;;22.80;99.90;;;;;;5042239;28;20462;-57
2023/09/02 10:22:08;;;;;;;4.67;2.43;;;22.60;99.90;;;;;;5033807;28;20459;-54
2023/09/02 10:24:40;;;;;;;6.47;2.83;;;23.50;99.90;;;;;;5024772;28;20525;-52
2023/09/02 10:27:18;;;;;;;9.17;2.60;;;24.20;99.90;;;;;;5034894;28;20956;-53
2023/09/02 10:29:52;;;;;;;3.60;2.63;;;24.60;99.90;;;;;;5034958;28;20901;-54
2023/09/02 10:32:20;;;;;;;6.17;2.90;;;24.40;1.40;;;;;;5033430;28;20524;-54
2023/09/02 10:34:52;;;;;;;3.87;2.93;;;24.40;99.90;;;;;;5040382;28;20584;-54
2023/09/02 10:37:24;;;;;;;4.70;2.57;;;24.10;99.90;;;;;;5030366;28;21196;-50
2023/09/02 10:39:55;;;;;;;4.27;2.90;;;23.70;99.90;;;;;;5028122;28;20471;-52
2023/09/02 10:42:23;;;;;;;4.37;2.80;;;22.80;99.90;;;;;;5035263;28;20470;-54
2023/09/02 10:44:53;;;;;;;6.77;2.47;;;22.10;99.90;;;;;;5034590;28;20519;-53
2023/09/02 10:47:20;;;;;;;4.10;2.60;;;22.30;99.90;;;;;;5039509;28;20489;-49
2023/09/02 10:49:47;;;;;;;2.00;1.80;;;23.40;99.90;;;;;;5046697;28;20470;-51
2023/09/02 10:52:16;;;;;;;5.17;2.57;;;23.00;99.90;;;;;;5045411;28;20516;-50
2023/09/02 10:55:02;;;;;;;3.30;2.00;;;22.90;99.90;;;;;;5030682;28;20517;-51
2023/09/02 10:57:29;;;;;;;5.47;2.40;;;24.10;99.90;;;;;;5020004;28;20478;-50
2023/09/02 11:00:18;;;;;;;2.17;1.80;;;24.50;99.90;;;;;;5015522;28;20478;-50
2023/09/02 11:02:47;;;;;;;2.30;1.90;;;24.20;99.90;;;;;;5042904;28;20944;-50
2023/09/02 11:05:14;;;;;;;6.17;2.60;;;24.00;99.90;;;;;;5053698;28;20486;-50
2023/09/02 11:07:41;;;;;;;3.13;2.10;;;23.80;99.90;;;;;;5036556;28;20467;-51
2023/09/02 11:10:09;;;;;;;4.70;1.93;;;23.70;99.90;;;;;;5027431;28;20470;-51
2023/09/02 11:12:56;;;;;;;2.60;1.93;;;23.60;99.90;;;;;;5014875;28;20529;-50
2023/09/02 11:15:24;;;;;;;3.00;2.10;;;23.40;99.90;;;;;;5018637;28;20467;-53
2023/09/02 11:17:50;;;;;;;4.60;2.10;;;23.10;99.90;;;;;;5044048;28;20553;-52
2023/09/02 11:20:19;;;;;;;1.63;1.53;;;22.60;99.90;;;;;;5045583;28;20431;-53
2023/09/02 11:22:54;;;;;;;2.80;2.13;;;23.00;99.90;;;;;;5037521;28;20486;-52
2023/09/02 11:25:29;;;;;;;1.50;1.40;;;22.70;99.90;;;;;;5033229;28;20506;-51
2023/09/02 11:27:56;;;;;;;2.80;2.13;;;22.70;99.90;;;;;;5028773;28;20463;-50
2023/09/02 11:30:26;;;;;;;4.60;1.97;;;22.50;99.90;;;;;;5028213;28;20536;-57
2023/09/02 11:32:54;;;;;;;2.80;1.80;;;22.30;99.90;;;;;;5044315;28;20462;-57
2023/09/02 11:35:25;;;;;;;6.53;2.30;;;22.30;99.90;;;;;;5036551;28;20458;-52
2023/09/02 11:37:52;;;;;;;2.90;1.73;;;22.20;99.90;;;;;;5031094;28;20439;-52
2023/09/02 11:40:20;;;;;;;2.97;1.50;;;22.10;99.90;;;;;;5033709;28;20442;-52
2023/09/02 11:42:51;;;;;;;3.23;1.90;;;22.30;99.90;;;;;;5031161;28;20536;-51
2023/09/02 11:45:18;;;;;;;4.03;1.80;;;22.30;99.90;;;;;;5031542;28;20474;-52
2023/09/02 11:47:47;;;;;;;2.80;1.73;;;22.30;99.90;;;;;;5034021;28;20470;-53
2023/09/02 11:50:15;;;;;;;10.63;2.27;;;22.00;99.90;;;;;;5033344;28;20439;-52
2023/09/02 11:52:42;;;;;;;4.87;2.17;;;22.10;99.90;;;;;;5032191;28;20609;-53
2023/09/02 11:55:10;;;;;;;3.43;2.30;;;22.20;99.90;;;;;;5032448;28;20529;-51
2023/09/02 11:57:37;;;;;;;4.87;1.97;;;22.20;99.90;;;;;;5024779;28;20486;-50
2023/09/02 12:00:06;;;;;;;2.50;1.73;;;22.10;99.90;;;;;;5034964;28;20490;-53
2023/09/02 12:02:35;;;;;;;5.30;2.13;;;22.00;99.90;;;;;;5024581;28;20937;-51
2023/09/02 12:05:03;;;;;;;2.00;1.90;;;22.00;99.90;;;;;;5016846;28;20931;-50
2023/09/02 12:07:32;;;;;;;3.70;1.93;;;22.20;99.90;;;;;;5024955;28;20469;-50
2023/09/02 12:10:04;;;;;;;2.23;2.03;;;22.10;99.90;;;;;;5025686;28;20463;-51
2023/09/02 12:12:31;;;;;;;3.03;2.20;;;22.90;99.90;;;;;;5021334;28;20466;-51
2023/09/02 12:14:57;;;;;;;4.00;2.03;;;23.50;99.90;;;;;;5032090;28;21058;-51
2023/09/02 12:17:25;;;;;;;4.80;2.70;;;23.60;99.90;;;;;;5031717;28;20463;-50
2023/09/02 12:19:52;;;;;;;3.10;1.93;;;23.40;99.90;;;;;;5032371;28;20877;-52
2023/09/02 12:22:21;;;;;;;4.07;2.03;;;22.80;99.90;;;;;;5027742;28;20459;-51
2023/09/02 12:24:47;;;;;;;3.77;1.67;;;22.80;99.90;;;;;;5025182;28;20565;-50
2023/09/02 12:27:16;;;;;;;4.70;1.80;;;23.00;99.90;;;;;;5030167;28;20494;-51
2023/09/02 12:29:53;;;;;;;3.27;2.30;;;23.10;99.90;;;;;;5032768;28;20481;-50
2023/09/02 12:32:20;;;;;;;1.80;1.70;;;23.20;99.90;;;;;;5031347;28;20893;-50
2023/09/02 12:34:47;;;;;;;4.40;1.97;;;23.20;99.90;;;;;;5030245;28;20471;-51
2023/09/02 12:37:17;;;;;;;2.30;1.30;;;23.20;99.90;;;;;;5031793;28;20486;-51
2023/09/02 12:39:45;;;;;;;3.47;1.60;;;23.50;99.90;;;;;;5032420;28;20481;-50
2023/09/02 12:42:16;;;;;;;2.00;1.60;;;24.10;99.90;;;;;;5032817;28;20443;-51
2023/09/02 12:44:50;;;;;;;2.03;1.60;;;24.40;99.90;;;;;;5028979;28;20487;-50
2023/09/02 12:47:21;;;;;;;1.70;1.50;;;23.90;99.90;;;;;;5032180;28;20513;-50
2023/09/02 12:49:48;;;;;;;2.03;1.80;;;23.30;99.90;;;;;;5031961;28;20467;-50
2023/09/02 12:52:20;;;;;;;1.47;1.30;;;22.50;99.90;;;;;;5033584;28;20549;-51